createdAt,value
2017-08-30T00:02:00.947Z,10.43
2017-08-30T00:04:32.611Z,9.90
2017-08-30T00:07:02.710Z,9.33
2017-08-30T00:09:30.718Z,9.70
2017-08-30T00:12:02.623Z,9.47
2017-08-30T00:14:38.358Z,9.20
2017-08-30T00:17:05.005Z,9.70
2017-08-30T00:19:31.403Z,10.03
2017-08-30T00:22:03.608Z,11.20
2017-08-30T00:27:32.879Z,9.50
2017-08-30T00:30:01.964Z,10.13
2017-08-30T00:32:33.621Z,10.40
2017-08-30T00:35:06.681Z,9.70
2017-08-30T00:37:40.167Z,11.00
2017-08-30T00:40:24.380Z,10.70
2017-08-30T00:42:56.512Z,9.87
2017-08-30T00:45:31.561Z,10.03
2017-08-30T00:48:02.761Z,10.80
2017-08-30T00:50:37.721Z,10.50
2017-08-30T00:53:05.127Z,10.50
2017-08-30T00:55:32.823Z,10.80
2017-08-30T00:58:23.345Z,9.57
2017-08-30T01:01:11.381Z,13.20
2017-08-30T01:03:38.054Z,10.47
2017-08-30T01:06:04.586Z,10.90
2017-08-30T01:08:34.919Z,11.10
2017-08-30T01:11:02.914Z,9.80
2017-08-30T01:13:31.949Z,10.87
2017-08-30T01:16:09.869Z,10.70
2017-08-30T01:18:37.763Z,10.30
2017-08-30T01:21:21.705Z,11.17
2017-08-30T01:23:58.000Z,9.30
2017-08-30T01:26:31.803Z,10.33
2017-08-30T01:29:07.173Z,10.00
2017-08-30T01:31:33.628Z,10.90
2017-08-30T01:34:00.901Z,9.57
2017-08-30T01:36:31.179Z,10.43
2017-08-30T01:39:01.339Z,10.90
2017-08-30T01:41:33.826Z,9.83
2017-08-30T01:44:06.450Z,10.80
2017-08-30T01:46:33.753Z,11.43
2017-08-30T01:49:02.921Z,11.50
2017-08-30T01:51:32.998Z,9.97
2017-08-30T01:54:02.910Z,10.37
2017-08-30T01:56:32.084Z,10.50
2017-08-30T01:59:00.862Z,10.90
2017-08-30T02:01:32.893Z,10.50
2017-08-30T02:04:01.148Z,11.13
2017-08-30T02:06:30.860Z,11.03
2017-08-30T02:09:01.897Z,10.37
2017-08-30T02:11:32.934Z,11.00
2017-08-30T02:14:07.756Z,11.67
2017-08-30T02:16:35.458Z,9.73
2017-08-30T02:19:02.248Z,10.53
2017-08-30T02:21:35.043Z,11.30
2017-08-30T02:24:18.280Z,11.10
2017-08-30T02:26:57.695Z,12.17
2017-08-30T02:29:33.441Z,12.10
2017-08-30T02:32:01.368Z,12.27
2017-08-30T02:34:31.854Z,12.47
2017-08-30T02:37:01.053Z,12.33
2017-08-30T02:39:32.177Z,13.40
2017-08-30T02:42:03.231Z,12.93
2017-08-30T02:44:31.905Z,12.87
2017-08-30T02:47:03.097Z,12.57
2017-08-30T02:49:34.053Z,12.03
2017-08-30T02:52:05.644Z,12.10
2017-08-30T02:54:32.539Z,12.93
2017-08-30T02:57:02.656Z,12.90
2017-08-30T02:59:37.950Z,12.67
2017-08-30T03:02:04.742Z,12.57
2017-08-30T03:04:34.868Z,12.10
2017-08-30T03:07:03.203Z,13.73
2017-08-30T03:09:32.208Z,12.53
2017-08-30T03:12:02.957Z,12.67
2017-08-30T03:14:34.022Z,12.87
2017-08-30T03:17:01.301Z,14.93
2017-08-30T03:19:40.467Z,13.60
2017-08-30T03:22:09.002Z,14.27
2017-08-30T03:24:35.604Z,14.77
2017-08-30T03:27:04.222Z,15.47
2017-08-30T03:29:33.900Z,14.00
2017-08-30T03:32:03.333Z,12.90
2017-08-30T03:34:33.149Z,14.77
2017-08-30T03:37:17.172Z,12.77
2017-08-30T03:40:07.525Z,14.63
2017-08-30T03:42:35.777Z,14.67
2017-08-30T03:45:02.353Z,16.83
2017-08-30T03:47:34.311Z,15.20
2017-08-30T03:50:04.227Z,17.67
2017-08-30T03:52:32.321Z,15.63
2017-08-30T03:55:02.970Z,15.87
2017-08-30T03:57:32.193Z,15.50
2017-08-30T04:00:03.075Z,15.53
2017-08-30T04:02:31.230Z,14.97
2017-08-30T04:05:03.039Z,15.53
2017-08-30T04:07:31.897Z,17.63
2017-08-30T04:10:01.387Z,16.40
2017-08-30T04:12:48.005Z,16.40
2017-08-30T04:15:26.232Z,15.97
2017-08-30T04:18:02.566Z,16.53
2017-08-30T04:20:34.014Z,15.67
2017-08-30T04:23:02.390Z,15.60
2017-08-30T04:25:31.526Z,18.00
2017-08-30T04:30:57.051Z,15.37
2017-08-30T04:33:26.673Z,17.73
2017-08-30T04:35:59.029Z,16.73
2017-08-30T04:38:33.299Z,16.37
2017-08-30T04:41:13.489Z,17.60
2017-08-30T04:43:42.377Z,17.97
2017-08-30T04:46:08.650Z,17.30
2017-08-30T04:48:34.965Z,16.60
2017-08-30T04:51:01.616Z,17.60
2017-08-30T04:53:28.983Z,18.10
2017-08-30T04:56:00.415Z,16.97
2017-08-30T04:58:27.004Z,17.77
2017-08-30T05:01:00.977Z,17.73
2017-08-30T05:03:32.511Z,17.17
2017-08-30T05:05:59.900Z,22.70
2017-08-30T05:08:33.370Z,17.77
2017-08-30T05:11:02.657Z,15.40
2017-08-30T05:13:54.569Z,17.37
2017-08-30T05:16:31.236Z,16.80
2017-08-30T05:19:11.594Z,18.37
2017-08-30T05:21:41.303Z,16.97
2017-08-30T05:24:07.810Z,17.30
2017-08-30T05:26:34.693Z,15.60
2017-08-30T05:29:02.522Z,13.30
2017-08-30T05:31:32.238Z,13.10
2017-08-30T05:34:04.791Z,14.50
2017-08-30T05:36:32.529Z,14.77
2017-08-30T05:39:03.588Z,13.07
2017-08-30T05:41:33.560Z,11.70
2017-08-30T05:44:03.631Z,11.57
2017-08-30T05:46:33.432Z,12.63
2017-08-30T05:49:02.452Z,12.60
2017-08-30T05:54:37.542Z,11.97
2017-08-30T05:57:03.821Z,10.90
2017-08-30T05:59:31.581Z,10.73
2017-08-30T06:02:04.589Z,11.57
2017-08-30T06:04:34.518Z,10.20
2017-08-30T06:07:01.836Z,11.10
2017-08-30T06:09:31.515Z,11.07
2017-08-30T06:12:03.865Z,10.20
2017-08-30T06:14:32.875Z,10.90
2017-08-30T06:17:03.799Z,10.90
2017-08-30T06:19:32.723Z,10.37
2017-08-30T06:22:02.733Z,10.07
2017-08-30T06:24:31.904Z,12.47
2017-08-30T06:27:02.873Z,10.80
2017-08-30T06:29:32.846Z,9.90
2017-08-30T06:32:03.560Z,10.47
2017-08-30T06:34:31.819Z,10.07
2017-08-30T06:37:03.646Z,10.00
2017-08-30T06:39:31.752Z,12.33
2017-08-30T06:42:22.454Z,10.13
2017-08-30T06:45:02.417Z,9.90
2017-08-30T06:47:33.051Z,9.77
2017-08-30T06:52:56.427Z,9.20
2017-08-30T06:55:30.076Z,9.80
2017-08-30T06:58:05.532Z,9.70
2017-08-30T07:00:33.626Z,8.80
2017-08-30T07:03:00.977Z,9.33
2017-08-30T07:05:30.869Z,10.37
2017-08-30T07:08:00.746Z,9.37
2017-08-30T07:10:27.122Z,10.10
2017-08-30T07:12:58.910Z,10.03
2017-08-30T07:15:26.662Z,10.13
2017-08-30T07:18:01.562Z,9.40
2017-08-30T07:20:30.807Z,9.30
2017-08-30T07:23:06.606Z,13.10
2017-08-30T07:25:33.075Z,10.30
2017-08-30T07:28:01.894Z,8.90
2017-08-30T07:30:32.634Z,10.50
2017-08-30T07:33:02.872Z,10.50
2017-08-30T07:35:33.470Z,10.70
2017-08-30T07:38:01.815Z,9.50
2017-08-30T07:40:32.798Z,10.30
2017-08-30T07:43:02.060Z,10.33
2017-08-30T07:48:27.397Z,11.97
2017-08-30T07:51:02.328Z,11.07
2017-08-30T07:53:31.617Z,11.10
2017-08-30T07:56:01.593Z,11.67
2017-08-30T07:58:31.582Z,10.10
2017-08-30T08:01:03.909Z,11.53
2017-08-30T08:03:32.845Z,11.47
2017-08-30T08:06:03.958Z,10.00
2017-08-30T08:08:33.790Z,11.23
2017-08-30T08:11:04.400Z,10.43
2017-08-30T08:13:34.737Z,9.60
2017-08-30T08:16:02.034Z,13.17
2017-08-30T08:18:40.061Z,11.40
2017-08-30T08:21:11.301Z,11.10
2017-08-30T08:23:37.827Z,14.13
2017-08-30T08:26:04.346Z,17.63
2017-08-30T08:28:42.705Z,12.50
2017-08-30T08:31:12.110Z,13.70
2017-08-30T08:33:38.454Z,13.23
2017-08-30T08:36:05.128Z,12.80
2017-08-30T08:38:33.255Z,13.73
2017-08-30T08:41:02.428Z,13.47
2017-08-30T08:43:33.200Z,14.27
2017-08-30T08:46:03.954Z,13.43
2017-08-30T08:48:32.342Z,12.07
2017-08-30T08:51:04.156Z,13.03
2017-08-30T08:53:39.828Z,13.57
2017-08-30T08:56:06.291Z,15.53
2017-08-30T08:58:34.067Z,15.20
2017-08-30T09:01:22.206Z,15.80
2017-08-30T09:04:05.057Z,17.93
2017-08-30T09:06:32.493Z,16.20
2017-08-30T09:09:02.175Z,16.97
2017-08-30T09:11:32.722Z,18.43
2017-08-30T09:14:16.767Z,16.83
2017-08-30T09:16:54.968Z,17.30
2017-08-30T09:19:33.585Z,18.23
2017-08-30T09:22:06.710Z,17.40
2017-08-30T09:24:33.579Z,16.97
2017-08-30T09:27:04.431Z,18.27
2017-08-30T09:29:45.891Z,18.37
2017-08-30T09:32:35.302Z,20.90
2017-08-30T09:35:03.255Z,18.30
2017-08-30T09:37:33.523Z,19.40
2017-08-30T09:40:04.496Z,21.73
2017-08-30T09:42:40.994Z,19.20
2017-08-30T09:45:09.465Z,19.73
2017-08-30T09:47:36.288Z,20.27
2017-08-30T09:50:02.838Z,20.70
2017-08-30T09:52:32.457Z,21.40
2017-08-30T09:55:08.329Z,22.90
2017-08-30T09:57:38.763Z,23.40
2017-08-30T10:00:05.303Z,23.40
2017-08-30T10:02:33.846Z,24.30
2017-08-30T10:05:02.850Z,24.20
2017-08-30T10:07:36.683Z,22.57
2017-08-30T10:10:07.776Z,23.90
2017-08-30T10:12:34.369Z,22.83
2017-08-30T10:15:02.539Z,26.07
2017-08-30T10:17:42.309Z,23.90
2017-08-30T10:20:13.179Z,26.17
2017-08-30T10:22:39.839Z,24.90
2017-08-30T10:25:06.342Z,23.47
2017-08-30T10:27:33.331Z,22.27
2017-08-30T10:30:02.274Z,21.43
2017-08-30T10:32:33.850Z,23.40
2017-08-30T10:35:03.674Z,21.67
2017-08-30T10:37:32.326Z,20.30
2017-08-30T10:42:43.490Z,22.30
2017-08-30T10:45:10.111Z,21.70
2017-08-30T10:47:36.604Z,22.33
2017-08-30T10:50:03.306Z,22.53
2017-08-30T10:52:38.082Z,20.97
2017-08-30T10:55:05.962Z,20.43
2017-08-30T10:57:38.282Z,20.80
2017-08-30T11:00:04.849Z,23.40
2017-08-30T11:02:32.131Z,21.67
2017-08-30T11:05:07.683Z,21.40
2017-08-30T11:07:35.395Z,22.30
2017-08-30T11:10:02.788Z,22.03
2017-08-30T11:12:32.312Z,22.60
2017-08-30T11:15:12.797Z,19.90
2017-08-30T11:17:40.241Z,22.40
2017-08-30T11:20:06.541Z,20.77
2017-08-30T11:22:32.958Z,20.17
2017-08-30T11:25:03.569Z,19.97
2017-08-30T11:27:31.921Z,19.60
2017-08-30T11:30:00.020Z,18.77
2017-08-30T11:32:33.385Z,19.80
2017-08-30T11:35:02.497Z,20.00
2017-08-30T11:37:30.582Z,17.43
2017-08-30T11:40:02.490Z,17.97
2017-08-30T11:42:32.121Z,18.37
2017-08-30T11:44:58.507Z,17.80
2017-08-30T11:47:26.261Z,17.33
2017-08-30T11:50:01.337Z,16.30
2017-08-30T11:52:30.970Z,17.27
2017-08-30T11:55:05.318Z,17.63
2017-08-30T11:57:32.021Z,15.43
2017-08-30T12:00:00.984Z,18.77
2017-08-30T12:02:30.630Z,22.17
2017-08-30T12:05:01.927Z,23.07
2017-08-30T12:07:31.685Z,23.30
2017-08-30T12:10:16.126Z,20.97
2017-08-30T12:12:49.362Z,20.70
2017-08-30T12:15:21.939Z,21.70
2017-08-30T12:17:56.683Z,21.40
2017-08-30T12:20:30.380Z,22.17
2017-08-30T12:23:01.370Z,19.10
2017-08-30T12:25:37.755Z,21.10
2017-08-30T12:28:04.485Z,21.90
2017-08-30T12:30:31.150Z,19.90
2017-08-30T12:33:02.373Z,19.33
2017-08-30T12:35:33.198Z,17.10
2017-08-30T12:38:11.635Z,21.40
2017-08-30T12:40:38.337Z,20.90
2017-08-30T12:43:04.818Z,19.27
2017-08-30T12:45:32.972Z,20.53
2017-08-30T12:48:02.857Z,19.37
2017-08-30T12:50:31.868Z,21.47
2017-08-30T12:53:02.466Z,20.27
2017-08-30T12:55:29.434Z,24.20
2017-08-30T12:58:05.009Z,23.00
2017-08-30T13:00:34.317Z,21.40
2017-08-30T13:03:01.988Z,20.67
2017-08-30T13:05:32.235Z,20.03
2017-08-30T13:08:01.738Z,18.77
2017-08-30T13:10:36.990Z,21.33
2017-08-30T13:13:05.689Z,23.47
2017-08-30T13:15:33.095Z,21.87
2017-08-30T13:18:01.192Z,21.67
2017-08-30T13:20:30.098Z,23.30
2017-08-30T13:23:08.099Z,20.90
2017-08-30T13:25:36.419Z,20.37
2017-08-30T13:28:02.709Z,19.30
2017-08-30T13:30:31.365Z,18.33
2017-08-30T13:32:59.765Z,19.10
2017-08-30T13:35:30.196Z,18.73
2017-08-30T13:38:00.542Z,18.50
2017-08-30T13:40:27.283Z,19.47
2017-08-30T13:42:54.838Z,20.47
2017-08-30T13:45:31.632Z,19.20
2017-08-30T13:48:01.422Z,21.03
2017-08-30T13:50:28.219Z,19.87
2017-08-30T13:52:57.586Z,19.93
2017-08-30T13:55:27.789Z,19.00
2017-08-30T13:57:58.766Z,17.77
2017-08-30T14:00:29.901Z,18.07
2017-08-30T14:03:01.237Z,17.27
2017-08-30T14:05:29.261Z,18.43
2017-08-30T14:07:58.104Z,17.20
2017-08-30T14:10:27.341Z,19.00
2017-08-30T14:12:58.355Z,18.70
2017-08-30T14:15:26.469Z,19.97
2017-08-30T14:18:04.443Z,21.00
2017-08-30T14:20:31.566Z,20.23
2017-08-30T14:23:00.440Z,16.63
2017-08-30T14:25:27.077Z,16.80
2017-08-30T14:27:54.827Z,16.90
2017-08-30T14:30:27.303Z,17.47
2017-08-30T14:33:01.072Z,18.33
2017-08-30T14:35:29.045Z,17.70
2017-08-30T14:38:03.733Z,18.00
2017-08-30T14:40:30.667Z,17.37
2017-08-30T14:43:04.845Z,20.57
2017-08-30T14:45:32.986Z,18.10
2017-08-30T14:48:04.650Z,16.33
2017-08-30T14:53:34.691Z,17.23
2017-08-30T14:56:04.291Z,17.23
2017-08-30T14:58:31.951Z,19.63
2017-08-30T15:01:02.810Z,18.17
2017-08-30T15:03:43.474Z,18.23
2017-08-30T15:06:56.331Z,18.37
2017-08-30T15:12:41.134Z,17.87
2017-08-30T15:15:08.337Z,23.33
2017-08-30T15:17:34.754Z,18.93
2017-08-30T15:20:01.215Z,19.10
2017-08-30T15:22:32.976Z,20.77
2017-08-30T15:25:28.798Z,19.13
2017-08-30T15:28:01.369Z,19.03
2017-08-30T15:30:47.020Z,20.33
2017-08-30T15:33:23.593Z,19.60
2017-08-30T15:36:02.890Z,21.50
2017-08-30T15:38:32.781Z,19.40
2017-08-30T15:41:02.846Z,19.80
2017-08-30T15:43:33.354Z,20.23
2017-08-30T15:46:00.362Z,19.77
2017-08-30T15:48:28.748Z,21.13
2017-08-30T15:50:57.441Z,20.70
2017-08-30T15:53:26.854Z,20.17
2017-08-30T15:56:01.039Z,22.40
2017-08-30T15:58:28.762Z,23.00
2017-08-30T16:00:59.368Z,23.40
2017-08-30T16:03:27.694Z,25.53
2017-08-30T16:05:59.120Z,23.17
2017-08-30T16:08:28.704Z,21.87
2017-08-30T16:11:00.070Z,23.33
2017-08-30T16:13:27.377Z,28.20
2017-08-30T16:16:00.687Z,24.13
2017-08-30T16:18:28.384Z,26.40
2017-08-30T16:20:57.814Z,24.93
2017-08-30T16:23:25.414Z,26.80
2017-08-30T16:25:55.028Z,28.77
2017-08-30T16:28:23.299Z,27.33
2017-08-30T16:30:52.385Z,27.10
2017-08-30T16:33:21.515Z,28.13
2017-08-30T16:35:53.941Z,29.50
2017-08-30T16:38:22.622Z,29.03
2017-08-30T16:40:52.182Z,29.43
2017-08-30T16:43:20.606Z,30.63
2017-08-30T16:45:50.848Z,29.43
2017-08-30T16:48:21.675Z,29.43
2017-08-30T16:50:51.824Z,29.37
2017-08-30T16:53:28.758Z,29.90
2017-08-30T16:55:58.407Z,28.70
2017-08-30T16:58:27.450Z,29.03
2017-08-30T17:00:55.513Z,27.27
2017-08-30T17:03:26.276Z,28.57
2017-08-30T17:05:56.009Z,27.13
2017-08-30T17:08:24.847Z,26.90
2017-08-30T17:10:53.940Z,26.60
2017-08-30T17:13:26.457Z,27.27
2017-08-30T17:16:01.820Z,28.30
2017-08-30T17:18:30.619Z,27.33
2017-08-30T17:20:59.733Z,25.63
2017-08-30T17:23:28.324Z,28.83
2017-08-30T17:25:59.069Z,26.63
2017-08-30T17:28:27.626Z,28.73
2017-08-30T17:30:59.037Z,25.47
2017-08-30T17:33:31.614Z,29.73
2017-08-30T17:36:01.805Z,27.10
2017-08-30T17:38:31.476Z,28.13
2017-08-30T17:41:21.071Z,27.50
2017-08-30T17:43:50.107Z,27.57
2017-08-30T17:46:32.300Z,27.10
2017-08-30T17:48:59.301Z,28.20
2017-08-30T17:51:28.739Z,28.27
2017-08-30T17:53:58.482Z,29.23
2017-08-30T17:56:27.784Z,29.07
2017-08-30T17:58:57.088Z,28.53
2017-08-30T18:01:24.550Z,26.80
2017-08-30T18:03:51.758Z,28.80
2017-08-30T18:06:29.461Z,27.30
2017-08-30T18:08:57.068Z,28.07
2017-08-30T18:11:28.548Z,26.77
2017-08-30T18:13:58.150Z,30.60
2017-08-30T18:16:28.343Z,27.93
2017-08-30T18:18:59.428Z,27.57
2017-08-30T18:21:29.021Z,29.57
2017-08-30T18:23:57.719Z,28.53
2017-08-30T18:26:29.849Z,30.10
2017-08-30T18:29:01.208Z,30.10
2017-08-30T18:31:30.404Z,27.03
2017-08-30T18:33:58.339Z,31.00
2017-08-30T18:36:35.448Z,29.70
2017-08-30T18:39:02.136Z,29.90
2017-08-30T18:41:43.251Z,28.90
2017-08-30T18:44:11.030Z,30.87
2017-08-30T18:46:37.610Z,33.20
2017-08-30T18:49:04.135Z,31.17
2017-08-30T18:51:30.850Z,31.57
2017-08-30T18:54:00.793Z,29.77
2017-08-30T18:56:31.640Z,34.80
2017-08-30T18:59:02.693Z,35.97
2017-08-30T19:01:33.522Z,40.87
2017-08-30T19:04:01.810Z,49.27
2017-08-30T19:06:31.018Z,46.87
2017-08-30T19:08:58.808Z,56.07
2017-08-30T19:11:26.781Z,58.10
2017-08-30T19:14:00.307Z,55.33
2017-08-30T19:16:29.781Z,62.37
2017-08-30T19:18:58.325Z,52.87
2017-08-30T19:21:27.311Z,55.83
2017-08-30T19:24:01.070Z,56.90
2017-08-30T19:26:31.425Z,57.80
2017-08-30T19:28:59.310Z,55.17
2017-08-30T19:31:28.397Z,52.40
2017-08-30T19:33:58.957Z,55.77
2017-08-30T19:36:41.176Z,54.17
2017-08-30T19:39:08.225Z,40.03
2017-08-30T19:41:34.605Z,24.70
2017-08-30T19:44:01.210Z,16.00
2017-08-30T19:46:28.509Z,16.10
2017-08-30T19:48:57.459Z,14.83
2017-08-30T19:51:30.976Z,10.80
2017-08-30T19:54:03.944Z,7.47
2017-08-30T19:56:32.253Z,7.40
2017-08-30T19:59:04.320Z,6.83
2017-08-30T20:01:31.341Z,6.57
2017-08-30T20:04:18.463Z,5.30
2017-08-30T20:06:52.412Z,5.83
2017-08-30T20:09:23.438Z,5.83
2017-08-30T20:11:54.298Z,6.10
2017-08-30T20:14:26.121Z,5.67
2017-08-30T20:16:55.792Z,6.57
2017-08-30T20:19:23.546Z,7.40
2017-08-30T20:21:52.043Z,7.10
2017-08-30T20:24:30.746Z,6.27
2017-08-30T20:27:04.177Z,6.83
2017-08-30T20:29:34.128Z,6.03
2017-08-30T20:32:03.362Z,6.77
2017-08-30T20:34:31.485Z,7.10
2017-08-30T20:37:01.693Z,6.70
2017-08-30T20:39:30.894Z,7.23
2017-08-30T20:42:01.083Z,7.87
2017-08-30T20:44:30.695Z,8.73
2017-08-30T20:47:01.049Z,8.10
2017-08-30T20:49:31.150Z,7.20
2017-08-30T20:52:00.525Z,6.20
2017-08-30T20:54:30.821Z,8.27
2017-08-30T20:57:08.819Z,9.13
2017-08-30T20:59:36.358Z,8.53
2017-08-30T21:02:02.822Z,8.97
2017-08-30T21:04:31.741Z,8.90
2017-08-30T21:07:01.496Z,9.07
2017-08-30T21:09:29.803Z,10.47
2017-08-30T21:12:02.257Z,10.53
2017-08-30T21:14:31.276Z,10.60
2017-08-30T21:17:00.866Z,12.77
2017-08-30T21:19:30.852Z,12.47
2017-08-30T21:22:01.184Z,14.20
2017-08-30T21:24:29.915Z,12.47
2017-08-30T21:26:58.375Z,14.80
2017-08-30T21:29:30.862Z,18.43
2017-08-30T21:31:59.111Z,16.93
2017-08-30T21:34:28.676Z,20.77
2017-08-30T21:37:04.388Z,18.60
2017-08-30T21:39:31.889Z,18.13
2017-08-30T21:42:01.302Z,19.03
2017-08-30T21:44:30.693Z,20.40
2017-08-30T21:47:01.878Z,23.87
2017-08-30T21:49:30.601Z,20.30
2017-08-30T21:52:00.847Z,19.27
2017-08-30T21:54:30.378Z,20.40
2017-08-30T21:56:59.526Z,18.50
2017-08-30T21:59:29.707Z,21.47
2017-08-30T22:02:01.365Z,19.30
2017-08-30T22:04:33.250Z,20.37
2017-08-30T22:07:01.732Z,16.93
2017-08-30T22:09:32.631Z,16.10
2017-08-30T22:12:01.042Z,18.87
2017-08-30T22:14:32.669Z,16.33
2017-08-30T22:17:02.850Z,18.00
2017-08-30T22:19:34.770Z,16.67
2017-08-30T22:22:03.769Z,14.40
2017-08-30T22:24:32.039Z,17.40
2017-08-30T22:27:03.602Z,16.90
2017-08-30T22:29:31.861Z,17.37
2017-08-30T22:32:02.539Z,19.00
2017-08-30T22:34:32.027Z,18.80
2017-08-30T22:37:03.804Z,18.47
2017-08-30T22:39:32.762Z,17.97
2017-08-30T22:42:03.737Z,18.00
2017-08-30T22:44:32.495Z,20.03
2017-08-30T22:47:07.631Z,20.10
2017-08-30T22:49:34.152Z,17.77
2017-08-30T22:52:00.538Z,18.83
2017-08-30T22:54:32.954Z,17.87
2017-08-30T22:57:02.695Z,20.37
2017-08-30T22:59:31.836Z,17.10
2017-08-30T23:02:03.728Z,21.67
2017-08-30T23:04:31.934Z,19.83
2017-08-30T23:07:10.718Z,21.77
2017-08-30T23:09:38.216Z,19.53
2017-08-30T23:12:20.990Z,22.40
2017-08-30T23:18:21.969Z,25.70
2017-08-30T23:20:52.880Z,24.50
2017-08-30T23:23:50.073Z,27.73
2017-08-30T23:26:42.698Z,31.40
2017-08-30T23:29:12.828Z,29.17
2017-08-30T23:31:39.084Z,37.20
2017-08-30T23:34:05.380Z,39.43
2017-08-30T23:36:36.323Z,42.27
2017-08-30T23:39:03.707Z,43.70
2017-08-30T23:41:33.020Z,42.30
2017-08-30T23:44:00.734Z,41.33
2017-08-30T23:46:29.630Z,39.50
2017-08-30T23:49:03.466Z,39.17
2017-08-30T23:51:30.158Z,45.67
2017-08-30T23:54:05.549Z,45.30
2017-08-30T23:56:33.577Z,45.10
2017-08-30T23:59:04.630Z,44.37
